Time;durP1;ratioP1;P1;durP2;ratioP2;P2;SDS_P1;SDS_P2;PMS_P1;PMS_P2;Temp;Humidity;BMP_temperature;BMP_pressure;BME280_temperature;BME280_humidity;BME280_pressure;Samples;Min_cycle;Max_cycle;Signal;HPM_P1;HPM_P2
2022/07/26 00:03:14;;;;;;;;;16.75;16.00;;;;;;;;6487993;46;8963;-60
2022/07/26 00:09:17;;;;;;;;;17.25;16.50;;;;;;;;6489072;31;8947;-60
2022/07/26 00:15:19;;;;;;;;;18.00;16.75;;;;;;;;6487399;39;8903;-60
2022/07/26 00:21:23;;;;;;;;;17.75;15.25;;;;;;;;6488048;39;8928;-60
2022/07/26 00:27:26;;;;;;;;;23.25;21.25;;;;;;;;6488361;39;9108;-59
2022/07/26 00:33:29;;;;;;;;;18.00;16.75;;;;;;;;6488694;39;8873;-60
2022/07/26 00:39:31;;;;;;;;;17.25;17.25;;;;;;;;6489076;39;9916;-60
2022/07/26 00:45:35;;;;;;;;;16.25;14.50;;;;;;;;6488042;39;8908;-60
2022/07/26 00:51:37;;;;;;;;;19.25;18.00;;;;;;;;6488349;39;8888;-59
2022/07/26 00:57:40;;;;;;;;;26.00;22.50;;;;;;;;6488183;39;8889;-59
2022/07/26 01:03:43;;;;;;;;;20.25;18.00;;;;;;;;6488436;31;8929;-59
2022/07/26 01:09:45;;;;;;;;;23.25;20.50;;;;;;;;6488016;46;8955;-59
2022/07/26 01:15:48;;;;;;;;;21.75;20.00;;;;;;;;6488289;39;8904;-59
2022/07/26 01:21:50;;;;;;;;;25.25;23.00;;;;;;;;6487424;47;8967;-59
2022/07/26 01:27:53;;;;;;;;;23.00;21.75;;;;;;;;6489755;31;9100;-60
2022/07/26 01:33:56;;;;;;;;;24.00;21.75;;;;;;;;6489379;31;8869;-61
2022/07/26 01:39:59;;;;;;;;;21.50;20.25;;;;;;;;6489968;46;8882;-59
2022/07/26 01:46:02;;;;;;;;;19.25;17.75;;;;;;;;6489125;31;9069;-61
2022/07/26 01:52:05;;;;;;;;;20.75;19.00;;;;;;;;6490684;31;8841;-60
2022/07/26 01:58:07;;;;;;;;;21.50;21.50;;;;;;;;6489936;39;8850;-60
2022/07/26 02:04:57;;;;;;;;;20.50;20.50;;;;;;;;6490245;31;8932;-59
2022/07/26 02:17:00;;;;;;;;;17.50;16.75;;;;;;;;6488438;46;8885;-61
2022/07/26 02:23:03;;;;;;;;;22.75;20.00;;;;;;;;6489917;39;8913;-59
2022/07/26 02:29:06;;;;;;;;;21.75;21.25;;;;;;;;6489100;39;8900;-59
2022/07/26 02:35:10;;;;;;;;;23.67;22.33;;;;;;;;6489570;46;8912;-60
2022/07/26 02:41:12;;;;;;;;;23.75;21.25;;;;;;;;6489449;46;8907;-60
2022/07/26 02:47:17;;;;;;;;;21.00;20.50;;;;;;;;6489195;39;8857;-60
2022/07/26 02:53:20;;;;;;;;;22.50;21.75;;;;;;;;6489558;46;8849;-61
2022/07/26 02:59:22;;;;;;;;;26.33;22.67;;;;;;;;6489049;39;8901;-59
2022/07/26 03:05:25;;;;;;;;;24.00;22.00;;;;;;;;6489499;39;8933;-60
2022/07/26 03:11:28;;;;;;;;;23.00;23.00;;;;;;;;6489569;31;8873;-59
2022/07/26 03:17:30;;;;;;;;;20.00;19.00;;;;;;;;6489241;39;9456;-59
2022/07/26 03:23:33;;;;;;;;;22.00;20.67;;;;;;;;6489020;31;8921;-60
2022/07/26 03:29:36;;;;;;;;;19.67;19.67;;;;;;;;6508565;36;128682;-59
2022/07/26 03:35:38;;;;;;;;;20.00;19.75;;;;;;;;6489302;39;8972;-59
2022/07/26 03:41:42;;;;;;;;;21.67;20.00;;;;;;;;6489085;39;8897;-60
2022/07/26 03:47:45;;;;;;;;;19.25;19.00;;;;;;;;6488854;31;9541;-61
2022/07/26 03:53:47;;;;;;;;;25.75;22.00;;;;;;;;6489610;36;8885;-60
2022/07/26 03:59:49;;;;;;;;;21.50;20.50;;;;;;;;6489031;31;8856;-59
2022/07/26 04:05:53;;;;;;;;;22.00;19.75;;;;;;;;6463894;39;8980;-64
2022/07/26 04:11:57;;;;;;;;;22.50;20.75;;;;;;;;6491806;39;8897;-65
2022/07/26 04:17:59;;;;;;;;;18.50;18.00;;;;;;;;6491373;39;8856;-64
2022/07/26 04:24:04;;;;;;;;;21.50;20.50;;;;;;;;6491379;46;8919;-64
2022/07/26 04:30:08;;;;;;;;;23.25;21.25;;;;;;;;6490524;46;8914;-64
2022/07/26 04:36:16;;;;;;;;;28.50;26.50;;;;;;;;6488592;31;8920;-65
2022/07/26 04:42:19;;;;;;;;;22.25;20.75;;;;;;;;6492041;39;8920;-65
2022/07/26 04:48:21;;;;;;;;;26.00;24.25;;;;;;;;6491452;39;9552;-66
2022/07/26 04:54:25;;;;;;;;;23.75;21.75;;;;;;;;6490911;39;8886;-65
2022/07/26 05:00:27;;;;;;;;;21.00;21.00;;;;;;;;6490937;39;8860;-64
2022/07/26 05:06:31;;;;;;;;;28.00;25.25;;;;;;;;6489057;47;8976;-66
2022/07/26 05:12:33;;;;;;;;;23.00;23.00;;;;;;;;6490204;31;9487;-65
2022/07/26 05:18:36;;;;;;;;;30.33;27.67;;;;;;;;6489017;39;8863;-65
2022/07/26 05:24:49;;;;;;;;;25.25;22.25;;;;;;;;6489812;47;8835;-63
2022/07/26 05:30:52;;;;;;;;;25.50;23.00;;;;;;;;6490160;39;8876;-64
2022/07/26 05:36:54;;;;;;;;;24.75;23.75;;;;;;;;6489494;31;8922;-65
2022/07/26 05:42:56;;;;;;;;;23.25;22.25;;;;;;;;6489670;47;8918;-64
2022/07/26 05:48:58;;;;;;;;;26.75;25.50;;;;;;;;6488499;47;8930;-61
2022/07/26 05:55:01;;;;;;;;;27.25;24.75;;;;;;;;6489817;47;8859;-61
2022/07/26 06:01:03;;;;;;;;;23.50;22.25;;;;;;;;6486960;47;8948;-61
2022/07/26 06:07:05;;;;;;;;;26.75;23.50;;;;;;;;6486031;31;9586;-61
2022/07/26 06:13:08;;;;;;;;;23.75;22.50;;;;;;;;6489075;39;9023;-61
2022/07/26 06:19:10;;;;;;;;;24.75;23.50;;;;;;;;6489824;39;8902;-60
2022/07/26 06:25:12;;;;;;;;;27.50;24.50;;;;;;;;6490208;31;8883;-61
2022/07/26 06:31:14;;;;;;;;;27.00;25.75;;;;;;;;6488397;39;8967;-61
2022/07/26 06:37:17;;;;;;;;;28.00;24.75;;;;;;;;6490014;31;8900;-61
2022/07/26 06:43:19;;;;;;;;;25.25;23.75;;;;;;;;6488842;46;9035;-61
2022/07/26 06:49:21;;;;;;;;;29.25;26.00;;;;;;;;6488275;39;8992;-61
2022/07/26 06:55:24;;;;;;;;;28.50;28.50;;;;;;;;6489070;46;8871;-61
2022/07/26 07:01:29;;;;;;;;;28.75;28.75;;;;;;;;6489133;31;9007;-61
2022/07/26 07:07:52;;;;;;;;;29.50;24.75;;;;;;;;6487176;39;8925;-61
2022/07/26 07:13:55;;;;;;;;;23.75;23.75;;;;;;;;6488547;39;8918;-61
2022/07/26 07:19:57;;;;;;;;;27.25;27.25;;;;;;;;6488694;46;9065;-61
2022/07/26 07:25:59;;;;;;;;;30.25;25.75;;;;;;;;6490381;39;8882;-61
2022/07/26 07:32:03;;;;;;;;;37.75;34.00;;;;;;;;6488034;39;8934;-61
2022/07/26 07:38:06;;;;;;;;;23.00;21.00;;;;;;;;6490149;39;8903;-61
2022/07/26 07:44:10;;;;;;;;;26.75;25.00;;;;;;;;6489567;39;8973;-60
2022/07/26 07:50:13;;;;;;;;;29.75;27.00;;;;;;;;6488164;31;9129;-62
2022/07/26 07:56:16;;;;;;;;;37.00;35.50;;;;;;;;6488564;46;8922;-61
2022/07/26 08:02:18;;;;;;;;;24.00;20.50;;;;;;;;6489078;46;8890;-61
2022/07/26 08:08:20;;;;;;;;;27.25;25.50;;;;;;;;6489102;39;9004;-61
2022/07/26 08:14:23;;;;;;;;;21.75;21.50;;;;;;;;6489414;31;10014;-62
2022/07/26 08:20:27;;;;;;;;;21.25;21.25;;;;;;;;6486715;46;8910;-62
2022/07/26 08:26:31;;;;;;;;;22.00;21.50;;;;;;;;6490174;46;8949;-61
2022/07/26 08:32:33;;;;;;;;;25.00;21.50;;;;;;;;6489915;31;8922;-62
2022/07/26 08:38:35;;;;;;;;;23.75;22.75;;;;;;;;6487093;39;8918;-62
2022/07/26 08:44:40;;;;;;;;;22.75;22.50;;;;;;;;6489159;39;9156;-61
2022/07/26 08:50:46;;;;;;;;;28.00;24.75;;;;;;;;6484187;39;9053;-62
2022/07/26 08:56:51;;;;;;;;;21.50;19.50;;;;;;;;6484200;46;8873;-61
2022/07/26 09:02:56;;;;;;;;;23.50;22.25;;;;;;;;6485264;39;8984;-62
2022/07/26 09:09:11;;;;;;;;;23.00;21.75;;;;;;;;6306542;39;10001342;-62
2022/07/26 09:15:20;;;;;;;;;20.50;20.50;;;;;;;;6487712;31;9017;-63
2022/07/26 09:21:37;;;;;;;;;19.50;18.00;;;;;;;;6487300;47;8966;-61
2022/07/26 09:27:40;;;;;;;;;22.25;21.25;;;;;;;;6489069;39;8956;-63
2022/07/26 09:33:48;;;;;;;;;31.00;29.25;;;;;;;;6487595;39;8934;-62
2022/07/26 09:39:59;;;;;;;;;47.00;37.75;;;;;;;;6488869;39;8887;-61
2022/07/26 09:46:04;;;;;;;;;23.75;22.50;;;;;;;;6488414;31;9058;-62
2022/07/26 09:52:18;;;;;;;;;24.00;23.75;;;;;;;;6489881;39;9683;-63
2022/07/26 09:58:22;;;;;;;;;24.00;21.00;;;;;;;;6488771;39;8918;-63
2022/07/26 10:04:26;;;;;;;;;23.00;23.00;;;;;;;;6485841;31;8954;-62
2022/07/26 10:10:40;;;;;;;;;27.75;26.25;;;;;;;;6490777;39;8931;-62
2022/07/26 10:16:43;;;;;;;;;40.33;35.00;;;;;;;;6488375;39;8928;-63
2022/07/26 10:22:47;;;;;;;;;30.25;26.25;;;;;;;;6487756;39;8966;-61
2022/07/26 10:28:50;;;;;;;;;25.25;23.00;;;;;;;;6488596;39;8996;-62
2022/07/26 10:34:56;;;;;;;;;26.50;24.25;;;;;;;;6488571;39;9053;-61
2022/07/26 10:41:06;;;;;;;;;16.67;15.67;;;;;;;;6487852;39;9000;-60
2022/07/26 10:47:15;;;;;;;;;20.75;19.50;;;;;;;;6486106;39;9080;-61
2022/07/26 10:53:18;;;;;;;;;19.75;19.25;;;;;;;;6486672;39;8930;-61
2022/07/26 10:59:32;;;;;;;;;23.50;23.50;;;;;;;;6488924;46;8916;-61
2022/07/26 11:05:55;;;;;;;;;25.00;22.50;;;;;;;;6489923;46;8911;-61
2022/07/26 11:12:14;;;;;;;;;24.50;23.25;;;;;;;;6489362;31;8989;-60
2022/07/26 11:18:23;;;;;;;;;28.25;26.25;;;;;;;;6489178;39;8896;-61
2022/07/26 11:24:27;;;;;;;;;23.25;23.00;;;;;;;;6490047;39;8906;-61
2022/07/26 11:30:30;;;;;;;;;23.25;22.50;;;;;;;;6489216;31;8880;-61
2022/07/26 11:36:39;;;;;;;;;22.75;20.50;;;;;;;;6488749;46;8874;-61
2022/07/26 11:42:41;;;;;;;;;21.75;19.75;;;;;;;;6490247;39;9055;-63
2022/07/26 11:48:51;;;;;;;;;25.00;25.00;;;;;;;;6408138;36;5000872;-61
2022/07/26 11:54:53;;;;;;;;;23.25;23.25;;;;;;;;6488892;46;8850;-61
